Time;durP1;ratioP1;P1;durP2;ratioP2;P2;SDS_P1;SDS_P2;PMS_P1;PMS_P2;Temp;Humidity;BMP_temperature;BMP_pressure;BME280_temperature;BME280_humidity;BME280_pressure;Samples;Min_cycle;Max_cycle;Signal;HPM_P1;HPM_P2
2022/12/17 13:06:35;;;;;;;42.83;18.70;;;;;;;-0.72;100.00;99029.97;4421406;32;20094;-72
2022/12/17 13:09:21;;;;;;;51.72;18.05;;;;;;;-0.66;100.00;99028.88;4427663;32;20148;-72
2022/12/17 13:11:54;;;;;;;39.13;15.63;;;;;;;-0.78;100.00;99037.09;4436818;32;20143;-72
2022/12/17 13:14:25;;;;;;;38.25;16.58;;;;;;;-0.81;100.00;99026.91;4436497;32;20188;-72
2022/12/17 13:17:00;;;;;;;50.65;18.50;;;;;;;-0.93;100.00;99030.78;4436872;32;20394;-72
2022/12/17 13:19:38;;;;;;;47.10;18.15;;;;;;;-0.81;100.00;99021.78;4436730;32;20089;-73
2022/12/17 13:22:15;;;;;;;54.47;18.98;;;;;;;-0.83;100.00;99023.56;4436686;32;20158;-72
2022/12/17 13:24:52;;;;;;;41.10;15.75;;;;;;;-0.96;100.00;99036.88;4438143;32;20088;-72
2022/12/17 13:27:34;;;;;;;38.85;15.18;;;;;;;-0.97;100.00;99045.50;4470349;32;20485;-72
2022/12/17 13:30:17;;;;;;;43.95;16.65;;;;;;;-1.11;100.00;99046.00;4470109;32;20080;-72
2022/12/17 13:33:37;;;;;;;56.37;18.08;;;;;;;-1.16;100.00;99059.94;4470300;32;20093;-72
2022/12/17 13:36:10;;;;;;;40.97;16.00;;;;;;;-1.08;100.00;99065.63;4405916;32;20438;-72
2022/12/17 13:38:46;;;;;;;47.45;18.73;;;;;;;-1.01;100.00;99073.97;4406085;32;20199;-73
2022/12/17 13:41:21;;;;;;;50.88;17.55;;;;;;;-1.15;100.00;99067.59;4405949;32;20501;-72
2022/12/17 13:43:51;;;;;;;41.50;15.13;;;;;;;-1.12;100.00;99074.34;4393101;32;20102;-72
2022/12/17 13:46:22;;;;;;;55.33;18.95;;;;;;;-1.16;100.00;99077.94;4405933;32;20090;-72
2022/12/17 13:48:56;;;;;;;31.00;12.77;;;;;;;-1.21;100.00;99095.25;4405836;32;20105;-72
2022/12/17 13:51:29;;;;;;;47.40;15.65;;;;;;;-1.17;100.00;99087.37;4405830;32;20098;-72
2022/12/17 13:53:59;;;;;;;49.60;15.60;;;;;;;-1.14;100.00;99101.84;4405894;32;20102;-72
2022/12/17 13:56:29;;;;;;;45.45;17.05;;;;;;;-1.20;100.00;99113.19;4405785;32;20132;-72
2022/12/17 13:58:57;;;;;;;49.80;18.92;;;;;;;-1.13;100.00;99114.66;4405754;32;20082;-72
2022/12/17 14:01:43;;;;;;;54.72;20.40;;;;;;;-1.19;100.00;99112.28;4405761;32;20212;-72
2022/12/17 14:04:19;;;;;;;46.78;17.98;;;;;;;-1.25;100.00;99105.62;4405878;32;20136;-72
2022/12/17 14:06:46;;;;;;;42.08;15.95;;;;;;;-1.20;100.00;99112.34;4405695;32;20124;-72
2022/12/17 14:09:17;;;;;;;52.13;19.52;;;;;;;-1.22;100.00;99121.84;4419659;32;20221;-72
2022/12/17 14:14:33;;;;;;;46.28;16.20;;;;;;;-1.24;100.00;99116.78;4469500;32;20097;-73
2022/12/17 14:17:03;;;;;;;46.42;18.17;;;;;;;-1.36;100.00;99130.88;4468579;32;20104;-72
2022/12/17 14:19:31;;;;;;;52.17;18.60;;;;;;;-1.37;100.00;99126.63;4469719;32;20092;-73
2022/12/17 14:21:59;;;;;;;52.20;17.95;;;;;;;-1.47;100.00;99120.12;4481788;32;20117;-73
2022/12/17 14:24:28;;;;;;;39.45;15.45;;;;;;;-1.49;100.00;99134.75;4485345;31;20154;-73
2022/12/17 14:26:57;;;;;;;32.28;12.55;;;;;;;-1.52;100.00;99158.81;4483883;32;20471;-73
2022/12/17 14:29:30;;;;;;;47.25;17.05;;;;;;;-1.55;100.00;99155.53;4485325;31;20096;-73
2022/12/17 14:31:59;;;;;;;38.33;14.95;;;;;;;-1.63;100.00;99154.03;4484330;32;20486;-73
2022/12/17 14:34:27;;;;;;;37.70;14.75;;;;;;;-1.62;100.00;99158.31;4485357;32;20147;-73
2022/12/17 14:36:56;;;;;;;32.63;13.27;;;;;;;-1.62;100.00;99172.84;4485233;31;20096;-73
2022/12/17 14:39:27;;;;;;;41.58;17.12;;;;;;;-1.68;100.00;99167.94;4485217;31;20114;-73
2022/12/17 14:42:24;;;;;;;43.60;17.00;;;;;;;-1.74;100.00;99165.56;4484043;32;20095;-73
2022/12/17 14:45:00;;;;;;;35.13;13.90;;;;;;;-1.74;100.00;99168.13;4484098;32;20464;-73
2022/12/17 14:47:35;;;;;;;30.98;12.93;;;;;;;-1.78;100.00;99177.66;4484778;31;20446;-73
2022/12/17 14:50:11;;;;;;;43.55;14.43;;;;;;;-1.76;100.00;99196.44;4484219;32;20119;-73
2022/12/17 14:52:41;;;;;;;37.90;12.93;;;;;;;-1.81;100.00;99211.97;4485232;31;20149;-72
2022/12/17 14:55:28;;;;;;;32.10;12.73;;;;;;;-1.81;100.00;99208.59;4485300;31;20429;-72
2022/12/17 14:58:10;;;;;;;31.52;11.90;;;;;;;-1.80;100.00;99212.84;4485184;31;20106;-73
2022/12/17 15:00:43;;;;;;;36.67;13.75;;;;;;;-1.73;100.00;99219.44;4485311;31;20080;-73
2022/12/17 15:03:20;;;;;;;46.88;14.57;;;;;;;-1.71;100.00;99224.53;4484044;32;20105;-72
2022/12/17 15:05:51;;;;;;;33.05;14.20;;;;;;;-1.79;100.00;99238.47;4483799;32;20123;-72
2022/12/17 15:08:19;;;;;;;41.65;15.15;;;;;;;-1.94;100.00;99238.94;4482124;32;20171;-72
2022/12/17 15:10:46;;;;;;;50.92;14.77;;;;;;;-1.86;100.00;99243.81;4468078;32;20498;-72
2022/12/17 15:13:13;;;;;;;41.80;13.27;;;;;;;-1.85;100.00;99250.66;4468945;32;20497;-72
2022/12/17 15:15:41;;;;;;;36.55;12.45;;;;;;;-1.93;100.00;99237.22;4469496;32;20127;-72
2022/12/17 15:18:08;;;;;;;35.50;12.27;;;;;;;-1.96;100.00;99246.69;4469407;32;20149;-72
2022/12/17 15:20:38;;;;;;;37.78;12.73;;;;;;;-2.02;100.00;99235.78;4472805;32;20112;-72
2022/12/17 15:23:12;;;;;;;42.05;13.93;;;;;;;-2.06;100.00;99229.91;4483914;32;20161;-72
2022/12/17 15:25:39;;;;;;;41.80;13.50;;;;;;;-2.08;100.00;99236.78;4483709;32;20378;-72
2022/12/17 15:28:15;;;;;;;38.30;12.63;;;;;;;-2.04;100.00;99243.50;4484974;31;20080;-72
2022/12/17 15:30:42;;;;;;;30.83;11.30;;;;;;;-2.05;100.00;99249.53;4485064;31;20109;-72
2022/12/17 15:33:10;;;;;;;38.40;13.80;;;;;;;-2.05;100.00;99251.25;4485141;32;20122;-71
2022/12/17 15:35:39;;;;;;;31.17;12.50;;;;;;;-2.06;100.00;99255.56;4484785;31;20138;-72
2022/12/17 15:38:07;;;;;;;33.22;10.40;;;;;;;-2.08;100.00;99257.31;4484934;31;20095;-72
2022/12/17 15:40:35;;;;;;;36.28;12.93;;;;;;;-2.02;100.00;99259.69;4484816;31;20100;-72
2022/12/17 15:43:12;;;;;;;27.27;11.77;;;;;;;-2.10;100.00;99256.53;4483421;32;20085;-71
2022/12/17 15:45:47;;;;;;;28.73;11.35;;;;;;;-2.11;100.00;99265.12;4484904;31;20136;-71
2022/12/17 15:48:17;;;;;;;32.50;11.70;;;;;;;-2.13;100.00;99251.50;4484736;31;20092;-72
2022/12/17 15:50:44;;;;;;;28.10;8.48;;;;;;;-2.18;100.00;99259.34;4484846;31;20100;-71
2022/12/17 15:53:12;;;;;;;24.67;8.55;;;;;;;-2.15;100.00;99254.09;4484796;31;20093;-71
2022/12/17 15:55:40;;;;;;;27.10;9.30;;;;;;;-2.15;100.00;99250.69;4484723;31;20109;-71
2022/12/17 15:58:09;;;;;;;26.87;10.80;;;;;;;-2.19;100.00;99255.06;4484820;31;20092;-72
2022/12/17 16:00:36;;;;;;;24.70;8.23;;;;;;;-2.23;100.00;99263.75;4484536;31;20534;-71
2022/12/17 16:03:04;;;;;;;29.98;11.93;;;;;;;-2.20;100.00;99267.94;4484728;31;20139;-71
2022/12/17 16:05:31;;;;;;;20.67;7.20;;;;;;;-2.22;100.00;99264.59;4484560;31;20576;-71
2022/12/17 16:08:01;;;;;;;22.42;10.90;;;;;;;-2.18;100.00;99263.59;4484502;32;20145;-71
2022/12/17 16:10:29;;;;;;;21.50;7.97;;;;;;;-2.24;100.00;99303.16;4463974;32;165387;-71
2022/12/17 16:12:56;;;;;;;19.50;9.48;;;;;;;-2.24;100.00;99277.47;4468475;32;20154;-71
2022/12/17 16:15:23;;;;;;;26.23;9.30;;;;;;;-2.22;100.00;99290.25;4468820;32;20515;-71
2022/12/17 16:17:53;;;;;;;30.58;10.48;;;;;;;-2.24;100.00;99297.16;4468783;32;20134;-71
2022/12/17 16:20:20;;;;;;;26.62;9.20;;;;;;;-2.30;100.00;99320.41;4470383;32;20107;-71
2022/12/17 16:22:48;;;;;;;28.73;8.45;;;;;;;-2.26;100.00;99315.16;4484477;31;20503;-71
2022/12/17 16:25:15;;;;;;;22.58;9.10;;;;;;;-2.21;100.00;99322.72;4484421;31;20108;-71
2022/12/17 16:27:42;;;;;;;29.80;10.20;;;;;;;-2.26;100.00;99330.56;4484298;31;20080;-71
2022/12/17 16:30:10;;;;;;;28.35;10.20;;;;;;;-2.29;100.00;99338.34;4484495;31;20110;-71
2022/12/17 16:32:37;;;;;;;24.60;9.73;;;;;;;-2.34;100.00;99338.47;4484302;31;20115;-71
2022/12/17 16:35:05;;;;;;;32.78;10.75;;;;;;;-2.28;100.00;99336.63;4485805;32;20444;-72
2022/12/17 16:37:32;;;;;;;28.12;10.18;;;;;;;-2.27;100.00;99343.44;4486142;31;20100;-71
2022/12/17 16:39:59;;;;;;;27.58;9.45;;;;;;;-2.33;100.00;99335.03;4486254;31;20171;-72
2022/12/17 16:42:27;;;;;;;25.83;10.93;;;;;;;-2.33;100.00;99335.03;4486116;32;20091;-72
2022/12/17 16:44:54;;;;;;;28.83;11.10;;;;;;;-2.32;100.00;99336.72;4486039;31;20157;-72
2022/12/17 16:47:21;;;;;;;25.10;9.82;;;;;;;-2.29;100.00;99340.06;4485908;32;20100;-72
2022/12/17 16:49:49;;;;;;;31.33;12.37;;;;;;;-2.32;100.00;99359.81;4486182;31;20156;-72
2022/12/17 16:52:16;;;;;;;29.25;10.65;;;;;;;-2.36;100.00;99367.63;4486111;31;20101;-72
2022/12/17 16:54:44;;;;;;;33.50;12.98;;;;;;;-2.38;100.00;99359.94;4486012;32;20126;-72
2022/12/17 16:57:11;;;;;;;38.60;13.93;;;;;;;-2.34;100.00;99359.00;4486023;32;20096;-72
2022/12/17 16:59:38;;;;;;;28.55;12.00;;;;;;;-2.42;100.00;99350.69;4485922;31;20096;-72
2022/12/17 17:02:12;;;;;;;31.35;9.57;;;;;;;-2.39;100.00;99360.00;4486187;31;20122;-72
2022/12/17 17:04:39;;;;;;;34.50;12.07;;;;;;;-2.39;100.00;99368.56;4486013;31;20220;-72
2022/12/17 17:07:09;;;;;;;33.20;12.50;;;;;;;-2.42;100.00;99380.59;4486046;31;20104;-72
2022/12/17 17:09:36;;;;;;;25.17;11.90;;;;;;;-2.44;100.00;99378.06;4475505;31;20462;-72
2022/12/17 17:12:04;;;;;;;36.38;13.50;;;;;;;-2.43;100.00;99390.03;4470173;32;20084;-71
2022/12/17 17:14:31;;;;;;;31.73;11.00;;;;;;;-2.38;100.00;99393.31;4470016;32;20214;-72
2022/12/17 17:16:58;;;;;;;31.65;12.23;;;;;;;-2.39;100.00;99419.88;4470099;32;20076;-72
2022/12/17 17:19:25;;;;;;;30.80;12.73;;;;;;;-2.39;100.00;99396.78;4470265;32;20104;-72
2022/12/17 17:21:53;;;;;;;34.17;11.93;;;;;;;-2.39;100.00;99408.75;4482067;32;20529;-72
2022/12/17 17:24:24;;;;;;;30.20;11.90;;;;;;;-2.40;100.00;99420.75;4485981;31;20389;-72
2022/12/17 17:26:51;;;;;;;31.35;11.98;;;;;;;-2.43;100.00;99425.12;4485822;31;20110;-72
2022/12/17 17:29:19;;;;;;;24.30;9.25;;;;;;;-2.41;100.00;99428.47;4485801;31;20111;-72
2022/12/17 17:31:46;;;;;;;34.33;11.57;;;;;;;-2.23;100.00;99438.25;4485900;31;20104;-72
2022/12/17 17:34:35;;;;;;;36.10;13.30;;;;;;;-2.41;100.00;99433.59;4485884;31;20169;-72
2022/12/17 17:37:02;;;;;;;33.25;12.60;;;;;;;-2.42;100.00;99450.72;4485767;32;20118;-72
2022/12/17 17:39:31;;;;;;;43.20;14.85;;;;;;;-2.46;100.00;99443.16;4485626;31;20096;-72
2022/12/17 17:41:59;;;;;;;39.45;14.02;;;;;;;-2.46;100.00;99446.56;4485975;31;20123;-72
2022/12/17 17:44:26;;;;;;;39.40;14.35;;;;;;;-2.51;100.00;99433.00;4485667;31;20168;-72
2022/12/17 17:46:54;;;;;;;31.02;13.75;;;;;;;-2.47;100.00;99438.91;4484841;31;20643;-72
2022/12/17 17:49:21;;;;;;;37.72;12.60;;;;;;;-2.52;100.00;99431.31;4485694;31;20492;-72
2022/12/17 17:51:49;;;;;;;35.75;13.43;;;;;;;-2.50;100.00;99435.53;4485800;31;20112;-72
2022/12/17 17:54:38;;;;;;;41.95;14.87;;;;;;;-2.51;100.00;99427.88;4485720;31;20088;-72
2022/12/17 17:57:05;;;;;;;45.60;13.75;;;;;;;-2.52;100.00;99431.31;4485682;31;20174;-72
2022/12/17 17:59:32;;;;;;;34.85;13.13;;;;;;;-2.46;100.00;99428.59;4485512;32;20099;-72
2022/12/17 18:02:01;;;;;;;25.73;11.15;;;;;;;-2.47;100.00;99462.00;4485654;32;20140;-72
2022/12/17 18:04:29;;;;;;;40.67;12.10;;;;;;;-2.52;100.00;99446.72;4485931;32;20152;-72
2022/12/17 18:06:56;;;;;;;27.15;12.13;;;;;;;-2.51;100.00;99454.38;4485745;31;20092;-72
2022/12/17 18:09:43;;;;;;;38.92;12.18;;;;;;;-2.54;100.00;99463.88;4474399;32;20164;-72
2022/12/17 18:14:57;;;;;;;29.45;11.23;;;;;;;-2.57;100.00;99479.34;4469936;32;20156;-72
2022/12/17 18:17:41;;;;;;;32.15;12.85;;;;;;;-2.56;100.00;99487.00;4469942;32;20088;-72
2022/12/17 18:20:09;;;;;;;36.92;13.70;;;;;;;-2.59;100.00;99499.03;4469925;32;20148;-72
2022/12/17 18:22:36;;;;;;;36.78;13.18;;;;;;;-2.60;100.00;99484.53;4485690;31;20145;-72
2022/12/17 18:25:04;;;;;;;30.00;10.65;;;;;;;-2.58;100.00;99493.03;4485420;31;20105;-72
2022/12/17 18:27:31;;;;;;;33.53;11.20;;;;;;;-2.62;100.00;99499.09;4485436;31;20158;-72
2022/12/17 18:29:58;;;;;;;35.33;12.32;;;;;;;-2.64;100.00;99508.56;4485262;31;20096;-72
2022/12/17 18:32:25;;;;;;;35.97;12.52;;;;;;;-2.71;100.00;99513.84;4485539;32;20088;-72
2022/12/17 18:34:53;;;;;;;37.72;11.43;;;;;;;-2.63;100.00;99510.28;4485267;32;20434;-72
2022/12/17 18:37:20;;;;;;;26.30;11.45;;;;;;;-2.64;100.00;99495.75;4485439;31;20431;-72
2022/12/17 18:39:47;;;;;;;28.17;11.68;;;;;;;-2.67;100.00;99506.91;4485197;31;20100;-72
2022/12/17 18:45:00;;;;;;;27.45;10.23;;;;;;;-2.59;100.00;99522.97;4485426;31;20081;-72
2022/12/17 18:47:28;;;;;;;29.48;10.57;;;;;;;-2.63;100.00;99529.06;4485208;31;20096;-72
2022/12/17 18:49:55;;;;;;;31.15;11.35;;;;;;;-2.65;100.00;99535.91;4485252;32;20832;-72
2022/12/17 18:52:23;;;;;;;33.45;10.25;;;;;;;-2.68;100.00;99548.81;4485424;32;20195;-72
2022/12/17 18:54:51;;;;;;;37.42;12.10;;;;;;;-2.74;100.00;99560.06;4485270;31;20108;-72
2022/12/17 18:57:18;;;;;;;25.20;8.13;;;;;;;-2.76;100.00;99554.13;4484994;32;20149;-72
2022/12/17 18:59:45;;;;;;;36.83;12.37;;;;;;;-2.74;100.00;99560.06;4485004;32;20151;-72
2022/12/17 19:02:13;;;;;;;33.42;11.70;;;;;;;-2.76;100.00;99569.50;4485368;31;20441;-72
2022/12/17 19:04:40;;;;;;;27.35;9.10;;;;;;;-2.81;100.00;99563.66;4485115;31;20164;-72
2022/12/17 19:07:08;;;;;;;24.98;10.15;;;;;;;-2.82;100.00;99567.06;4485368;31;20108;-72
2022/12/17 19:09:37;;;;;;;25.70;9.90;;;;;;;-2.80;100.00;99575.59;4484920;31;20100;-72
2022/12/17 19:12:08;;;;;;;21.73;9.52;;;;;;;-2.77;100.00;99579.78;4485319;31;20163;-72
2022/12/17 19:14:35;;;;;;;31.65;10.52;;;;;;;-2.84;100.00;99584.22;4484989;31;20184;-72
2022/12/17 19:17:03;;;;;;;23.17;8.43;;;;;;;-2.86;100.00;99589.37;4484964;31;20092;-72
2022/12/17 19:19:31;;;;;;;22.20;9.13;;;;;;;-2.82;100.00;99597.84;4485071;31;20092;-72
2022/12/17 19:22:00;;;;;;;29.67;10.38;;;;;;;-2.78;100.00;99609.75;4472828;32;20116;-72
2022/12/17 19:24:28;;;;;;;24.00;9.98;;;;;;;-2.75;100.00;99607.09;4469263;32;20093;-72
2022/12/17 19:26:55;;;;;;;32.58;10.35;;;;;;;-2.80;100.00;99626.87;4469259;32;20088;-72
2022/12/17 19:29:23;;;;;;;28.30;10.00;;;;;;;-2.80;100.00;99624.31;4469254;32;20489;-72
2022/12/17 19:31:50;;;;;;;36.97;11.75;;;;;;;-2.79;100.00;99622.59;4469411;32;20183;-72
2022/12/17 19:34:18;;;;;;;44.88;14.05;;;;;;;-2.86;100.00;99625.28;4469558;32;20123;-72
2022/12/17 19:36:46;;;;;;;26.77;9.10;;;;;;;-2.88;100.00;99629.59;4469118;32;20148;-72
2022/12/17 19:39:18;;;;;;;35.17;10.45;;;;;;;-2.84;100.00;99632.94;4469389;32;20088;-72
2022/12/17 19:41:49;;;;;;;36.88;12.40;;;;;;;-2.90;100.00;99641.59;4469282;32;20100;-72
2022/12/17 19:44:19;;;;;;;30.83;10.93;;;;;;;-2.86;100.00;99637.28;4469223;32;20096;-72
2022/12/17 19:46:46;;;;;;;32.22;11.50;;;;;;;-2.87;100.00;99646.66;4469172;32;20147;-72
2022/12/17 19:49:15;;;;;;;31.08;11.20;;;;;;;-2.82;100.00;99654.25;4469195;32;20092;-72
2022/12/17 19:51:43;;;;;;;27.70;9.57;;;;;;;-2.79;100.00;99663.63;4469130;32;20112;-72
2022/12/17 19:54:13;;;;;;;32.53;12.13;;;;;;;-2.80;100.00;99675.59;4469108;32;20108;-72
2022/12/17 19:56:42;;;;;;;26.90;10.40;;;;;;;-2.80;100.00;99667.91;4469144;32;20154;-72
2022/12/17 19:59:10;;;;;;;32.92;11.38;;;;;;;-2.82;100.00;99674.78;4469003;32;20555;-72
2022/12/17 20:01:40;;;;;;;28.52;10.80;;;;;;;-2.81;100.00;99680.75;4468978;32;20179;-72
2022/12/17 20:04:13;;;;;;;31.25;10.45;;;;;;;-2.91;100.00;99683.47;4469195;32;20132;-72
2022/12/17 20:06:41;;;;;;;32.95;10.77;;;;;;;-2.90;100.00;99686.91;4468813;32;20155;-73
2022/12/17 20:09:09;;;;;;;36.67;11.25;;;;;;;-2.99;100.00;99692.22;4475115;32;20123;-73
2022/12/17 20:11:36;;;;;;;34.10;12.57;;;;;;;-3.00;100.00;99695.66;4484256;31;20366;-72
2022/12/17 20:14:03;;;;;;;32.20;12.18;;;;;;;-2.97;100.00;99706.69;4484493;31;20537;-73
2022/12/17 20:16:33;;;;;;;33.72;11.98;;;;;;;-2.97;100.00;99704.13;4484517;32;20156;-72
2022/12/17 20:19:03;;;;;;;30.33;11.55;;;;;;;-3.03;100.00;99710.22;4484466;31;20084;-72
2022/12/17 20:21:31;;;;;;;29.12;10.32;;;;;;;-2.94;100.00;99716.03;4475278;31;20100;-73
2022/12/17 20:24:00;;;;;;;31.55;11.15;;;;;;;-3.04;100.00;99728.19;4468744;32;20438;-73
2022/12/17 20:26:27;;;;;;;41.47;12.20;;;;;;;-3.03;100.00;99719.59;4468604;32;20109;-72
2022/12/17 20:28:55;;;;;;;32.15;11.80;;;;;;;-3.07;100.00;99725.69;4468849;32;20092;-72
2022/12/17 20:31:22;;;;;;;32.42;11.73;;;;;;;-3.13;100.00;99731.75;4468734;32;20080;-72
2022/12/17 20:33:49;;;;;;;32.53;11.77;;;;;;;-3.09;100.00;99735.09;4468815;32;20097;-73
2022/12/17 20:36:18;;;;;;;34.60;11.23;;;;;;;-3.10;100.00;99736.84;4468503;32;20482;-72
2022/12/17 20:38:45;;;;;;;26.65;10.52;;;;;;;-3.11;100.00;99742.81;4468654;32;20114;-72
2022/12/17 20:41:15;;;;;;;34.58;12.82;;;;;;;-3.15;100.00;99743.75;4468564;32;20104;-73
2022/12/17 20:43:43;;;;;;;39.65;13.27;;;;;;;-3.19;100.00;99739.56;4468314;32;20100;-72
2022/12/17 20:46:11;;;;;;;37.22;10.77;;;;;;;-3.09;100.00;99748.78;4468521;32;20101;-73
2022/12/17 20:48:39;;;;;;;31.35;11.25;;;;;;;-3.17;100.00;99750.63;4468147;32;20108;-72
2022/12/17 20:51:13;;;;;;;36.10;11.20;;;;;;;-3.22;100.00;99771.19;4468397;32;20085;-72
2022/12/17 20:53:40;;;;;;;26.45;10.80;;;;;;;-3.18;100.00;99764.28;4468468;32;20448;-72
2022/12/17 20:56:11;;;;;;;36.15;11.77;;;;;;;-3.19;100.00;99774.56;4468379;32;20419;-72
2022/12/17 20:58:39;;;;;;;38.03;13.82;;;;;;;-3.28;100.00;99776.44;4468271;32;20355;-73
2022/12/17 21:01:18;;;;;;;27.92;11.20;;;;;;;-3.21;100.00;99772.91;4467986;32;20102;-72
2022/12/17 21:03:48;;;;;;;24.20;9.60;;;;;;;-3.15;100.00;99789.91;4468366;32;20145;-73
2022/12/17 21:06:19;;;;;;;33.03;10.85;;;;;;;-3.14;100.00;99788.16;4468157;32;20088;-73
2022/12/17 21:08:48;;;;;;;23.25;8.70;;;;;;;-3.19;100.00;99803.63;4472898;32;20163;-73
2022/12/17 21:11:18;;;;;;;32.75;11.50;;;;;;;-3.14;100.00;99800.97;4483647;31;20087;-72
2022/12/17 21:13:45;;;;;;;28.58;11.35;;;;;;;-3.17;100.00;99803.59;4483803;31;20096;-73
2022/12/17 21:16:16;;;;;;;28.40;11.40;;;;;;;-3.14;100.00;99814.62;4483870;31;20088;-73
2022/12/17 21:18:44;;;;;;;31.17;11.65;;;;;;;-3.15;100.00;99807.84;4483568;31;20072;-72
2022/12/17 21:21:15;;;;;;;32.13;11.65;;;;;;;-3.17;100.00;99814.69;4478728;31;20522;-73
2022/12/17 21:23:43;;;;;;;35.30;11.90;;;;;;;-3.15;100.00;99815.53;4470163;32;20141;-72
2022/12/17 21:26:16;;;;;;;33.08;11.12;;;;;;;-3.10;100.00;99812.88;4470450;32;20526;-73
2022/12/17 21:28:45;;;;;;;39.97;13.45;;;;;;;-3.23;100.00;99827.59;4470406;32;20666;-72
2022/12/17 21:31:18;;;;;;;36.80;12.40;;;;;;;-3.26;100.00;99822.53;4470255;32;20096;-72
2022/12/17 21:33:46;;;;;;;;;;;;;;;-3.25;100.00;99819.09;4470657;32;20484;-73
2022/12/17 21:36:15;;;;;;;36.03;13.10;;;;;;;-3.27;100.00;99820.81;4470170;32;19971;-73
2022/12/17 21:38:43;;;;;;;39.60;14.27;;;;;;;-3.35;100.00;99812.41;4470096;32;20157;-72
2022/12/17 21:41:16;;;;;;;37.00;12.07;;;;;;;-3.35;100.00;99813.25;4470188;32;20081;-73
2022/12/17 21:43:43;;;;;;;29.98;11.20;;;;;;;-3.35;100.00;99817.53;4469950;32;20089;-72
2022/12/17 21:46:11;;;;;;;41.05;12.57;;;;;;;-3.34;100.00;99809.00;4470095;32;20097;-72
2022/12/17 21:48:40;;;;;;;40.88;14.48;;;;;;;-3.35;100.00;99813.25;4470005;32;20150;-72
2022/12/17 21:51:11;;;;;;;24.05;10.38;;;;;;;-3.41;100.00;99816.78;4469946;32;20495;-72
2022/12/17 21:53:41;;;;;;;32.30;10.73;;;;;;;-3.34;100.00;99819.25;4469865;32;20546;-72
2022/12/17 21:56:11;;;;;;;26.10;9.32;;;;;;;-3.45;100.00;99821.94;4470047;32;20439;-72
2022/12/17 21:58:40;;;;;;;35.53;12.37;;;;;;;-3.43;100.00;99813.38;4469943;32;20451;-72
2022/12/17 22:01:14;;;;;;;34.25;10.73;;;;;;;-3.43;100.00;99810.81;4469864;32;20419;-72
2022/12/17 22:03:46;;;;;;;25.45;10.73;;;;;;;-3.40;100.00;99821.03;4469938;32;20101;-72
2022/12/17 22:06:24;;;;;;;29.70;10.90;;;;;;;-3.45;100.00;99827.94;4469943;32;20240;-72
2022/12/17 22:08:58;;;;;;;29.60;10.45;;;;;;;-3.45;100.00;99825.37;4475719;32;20104;-73
2022/12/17 22:11:42;;;;;;;36.72;11.82;;;;;;;-3.45;100.00;99830.50;4485515;31;20111;-72
2022/12/17 22:14:11;;;;;;;37.65;13.30;;;;;;;-3.49;100.00;99838.25;4485416;32;20514;-73
2022/12/17 22:16:47;;;;;;;29.83;11.43;;;;;;;-3.46;100.00;99846.72;4485604;31;20144;-73
2022/12/17 22:19:18;;;;;;;31.40;12.40;;;;;;;-3.53;100.00;99859.66;4485389;32;20430;-72
2022/12/17 22:21:49;;;;;;;31.02;11.18;;;;;;;-3.55;100.00;99863.97;4474498;31;20516;-72
2022/12/17 22:24:21;;;;;;;23.65;10.50;;;;;;;-3.58;100.00;99882.75;4469717;32;20123;-72
2022/12/17 22:26:48;;;;;;;40.08;16.55;;;;;;;-3.55;100.00;99867.34;4469791;32;20093;-72
2022/12/17 22:32:58;;;;;;;43.83;13.15;;;;;;;-3.58;100.00;99869.97;4469635;32;20088;-72
2022/12/17 22:34:49;;;;;;;28.12;10.48;;;;;;;-3.61;100.00;99875.12;4469768;32;20177;-72
2022/12/17 22:37:37;;;;;;;30.42;12.37;;;;;;;-3.65;100.00;99871.78;4470124;32;20091;-73
2022/12/17 22:40:24;;;;;;;42.35;14.95;;;;;;;-3.59;100.00;99883.62;4469592;32;20196;-71
2022/12/17 22:43:29;;;;;;;28.15;11.95;;;;;;;-3.66;100.00;99882.03;4469553;32;20122;-72
2022/12/17 22:46:17;;;;;;;29.73;11.18;;;;;;;-3.65;100.00;99887.13;4469733;32;20165;-72
2022/12/17 22:48:44;;;;;;;34.85;11.80;;;;;;;-3.67;100.00;99888.84;4469526;32;20100;-73
2022/12/17 22:51:12;;;;;;;20.88;10.00;;;;;;;-3.67;100.00;99888.84;4469512;32;20594;-72
2022/12/17 22:53:58;;;;;;;29.37;10.48;;;;;;;-3.73;100.00;99881.25;4469574;32;20206;-72
2022/12/17 22:56:26;;;;;;;37.40;13.02;;;;;;;-3.69;100.00;99882.91;4469569;32;20160;-72
2022/12/17 22:59:15;;;;;;;37.30;13.68;;;;;;;-3.67;100.00;99885.44;4469503;32;20191;-72
2022/12/17 23:01:43;;;;;;;36.30;13.38;;;;;;;-3.70;100.00;99900.84;4469603;32;20610;-72
2022/12/17 23:04:12;;;;;;;33.92;14.10;;;;;;;-3.70;100.00;99911.09;4469551;32;20159;-72
2022/12/17 23:06:41;;;;;;;43.33;14.20;;;;;;;-3.65;100.00;99928.09;4469277;32;20589;-72
2022/12/17 23:09:08;;;;;;;40.80;13.35;;;;;;;-3.65;100.00;99924.69;4476564;32;20157;-72
2022/12/17 23:11:35;;;;;;;32.45;13.48;;;;;;;-3.74;100.00;99933.31;4484851;31;20088;-72
2022/12/17 23:14:04;;;;;;;35.42;13.05;;;;;;;-3.66;100.00;99930.69;4485299;31;20079;-72
2022/12/17 23:16:31;;;;;;;37.95;13.57;;;;;;;-3.63;100.00;99930.66;4485220;31;20431;-72
2022/12/17 23:19:00;;;;;;;46.80;13.57;;;;;;;-3.73;100.00;99934.19;4484957;31;20569;-72
2022/12/17 23:21:30;;;;;;;42.13;12.95;;;;;;;-3.69;100.00;99936.69;4476068;31;20609;-73
2022/12/17 23:23:57;;;;;;;44.20;14.85;;;;;;;-3.75;100.00;99940.16;4469254;32;20118;-72
2022/12/17 23:26:30;;;;;;;35.17;12.13;;;;;;;-3.69;100.00;99938.38;4469484;32;20162;-72
2022/12/17 23:29:00;;;;;;;36.35;13.73;;;;;;;-3.78;100.00;99952.16;4469304;32;20172;-73
2022/12/17 23:31:31;;;;;;;42.40;13.73;;;;;;;-3.73;100.00;99952.94;4469254;32;20100;-73
2022/12/17 23:33:59;;;;;;;42.17;13.40;;;;;;;-3.76;100.00;99947.84;4469413;32;20080;-72
2022/12/17 23:36:26;;;;;;;37.58;14.55;;;;;;;-3.79;100.00;99956.41;4469397;32;20475;-73
2022/12/17 23:38:56;;;;;;;39.63;14.70;;;;;;;-3.83;100.00;99959.03;4469259;32;20165;-72
2022/12/17 23:41:26;;;;;;;28.15;10.70;;;;;;;-3.87;100.00;99965.06;4469136;32;20093;-72
2022/12/17 23:43:54;;;;;;;38.78;14.32;;;;;;;-3.82;100.00;99969.25;4467786;32;20092;-72
2022/12/17 23:46:22;;;;;;;35.42;12.00;;;;;;;-3.79;100.00;99976.06;4469206;32;20476;-72
2022/12/17 23:48:50;;;;;;;40.70;13.02;;;;;;;-3.80;100.00;99975.22;4468986;32;20114;-72
2022/12/17 23:51:18;;;;;;;34.63;12.23;;;;;;;-3.84;100.00;99988.91;4469124;32;20096;-73
2022/12/17 23:53:45;;;;;;;34.78;11.57;;;;;;;-3.85;100.00;99997.44;4468977;32;20101;-72
2022/12/17 23:56:14;;;;;;;41.45;12.18;;;;;;;-3.87;100.00;99996.62;4469121;32;20706;-73
2022/12/17 23:58:43;;;;;;;44.00;14.82;;;;;;;-3.88;100.00;100002.59;4469157;32;20096;-73
